Time;durP1;ratioP1;P1;durP2;ratioP2;P2;SDS_P1;SDS_P2;PMS_P1;PMS_P2;Temp;Humidity;BMP_temperature;BMP_pressure;BME280_temperature;BME280_humidity;BME280_pressure;Samples;Min_cycle;Max_cycle;Signal;HPM_P1;HPM_P2
2021/05/02 00:02:07;;;;;;;13.70;10.27;;;;;;;9.62;59.41;101748.63;5017443;28;20033;-91
2021/05/02 00:04:33;;;;;;;15.57;11.10;;;;;;;9.56;59.90;101745.97;5017639;28;20066;-90
2021/05/02 00:07:02;;;;;;;15.70;10.57;;;;;;;9.54;59.90;101742.44;5017406;28;20045;-92
2021/05/02 00:09:30;;;;;;;15.70;11.05;;;;;;;9.52;59.75;101741.56;5017705;28;20025;-90
2021/05/02 00:11:59;;;;;;;17.42;10.63;;;;;;;9.48;59.89;101750.38;5017619;28;20039;-92
2021/05/02 00:14:27;;;;;;;15.43;10.35;;;;;;;9.46;59.55;101755.69;5017097;28;20026;-86
2021/05/02 00:16:55;;;;;;;14.65;10.55;;;;;;;9.39;59.80;101754.81;5017671;28;20042;-82
2021/05/02 00:19:22;;;;;;;14.48;9.60;;;;;;;9.39;59.76;101748.63;5017016;28;20034;-83
2021/05/02 00:21:51;;;;;;;11.85;8.60;;;;;;;9.38;60.12;101746.88;5017112;28;20028;-91
2021/05/02 00:24:28;;;;;;;12.00;9.32;;;;;;;9.38;59.94;101747.75;5016739;28;20054;-81
2021/05/02 00:27:04;;;;;;;13.73;9.40;;;;;;;9.30;59.96;101754.81;5016629;28;20034;-89
2021/05/02 00:29:42;;;;;;;18.70;10.25;;;;;;;9.33;60.01;101752.19;5017055;28;20397;-83
2021/05/02 00:32:16;;;;;;;14.18;9.98;;;;;;;9.28;59.77;101759.22;5016499;28;20374;-86
2021/05/02 00:34:42;;;;;;;15.65;10.57;;;;;;;9.23;59.80;101758.31;5031519;28;20041;-84
2021/05/02 00:37:10;;;;;;;18.05;10.73;;;;;;;9.22;60.22;101761.84;5016356;28;20022;-90
2021/05/02 00:39:40;;;;;;;18.63;10.23;;;;;;;9.19;59.73;101760.09;5016670;28;20073;-91
2021/05/02 00:42:14;;;;;;;16.38;10.18;;;;;;;9.14;60.21;101764.50;5017274;28;20034;-89
2021/05/02 00:44:50;;;;;;;12.43;9.40;;;;;;;9.21;59.99;101770.69;5016587;28;20030;-83
2021/05/02 00:50:10;;;;;;;16.63;10.90;;;;;;;9.11;60.49;101768.91;5070992;27;20895;-91
2021/05/02 00:55:55;;;;;;;17.52;9.43;;;;;;;9.09;60.55;101768.03;5071433;28;20356;-91
2021/05/02 00:58:34;;;;;;;16.67;9.65;;;;;;;9.10;59.89;101769.78;5070972;28;20427;-91
2021/05/02 01:01:02;;;;;;;16.05;10.68;;;;;;;9.02;60.08;101769.75;5070559;28;20033;-91
2021/05/02 01:03:33;;;;;;;14.30;9.32;;;;;;;9.03;60.28;101779.47;5071310;28;20028;-92
2021/05/02 01:06:07;;;;;;;17.98;9.27;;;;;;;9.02;60.29;101765.38;5070059;28;20036;-89
2021/05/02 01:08:36;;;;;;;16.55;10.10;;;;;;;8.97;60.26;101767.13;5071025;28;20051;-91
2021/05/02 01:11:05;;;;;;;15.05;8.75;;;;;;;8.95;60.83;101770.63;5070657;28;20036;-91
2021/05/02 01:13:36;;;;;;;13.63;8.90;;;;;;;8.96;60.13;101781.22;5070624;28;20063;-87
2021/05/02 01:16:05;;;;;;;14.15;8.85;;;;;;;8.90;60.32;101778.56;5070599;28;20119;-91
2021/05/02 01:18:32;;;;;;;23.08;10.20;;;;;;;8.88;60.59;101777.69;5070384;28;20024;-91
2021/05/02 01:20:59;;;;;;;17.98;8.18;;;;;;;8.84;60.06;101775.91;5070125;28;20029;-91
2021/05/02 01:26:05;;;;;;;14.50;8.77;;;;;;;8.80;59.95;101779.41;5090448;28;20400;-87
2021/05/02 01:28:31;;;;;;;14.68;8.63;;;;;;;8.73;60.20;101778.53;5071216;28;20033;-90
2021/05/02 01:30:59;;;;;;;13.07;8.70;;;;;;;8.73;60.62;101774.13;5071536;28;20455;-90
2021/05/02 01:33:26;;;;;;;16.30;9.13;;;;;;;8.72;60.65;101771.47;5071151;28;20411;-90
2021/05/02 01:35:53;;;;;;;12.88;7.60;;;;;;;8.69;59.95;101775.00;5070854;28;20086;-91
2021/05/02 01:38:23;;;;;;;17.10;8.32;;;;;;;8.70;60.57;101778.53;5070885;28;20079;-83
2021/05/02 01:40:53;;;;;;;14.77;8.35;;;;;;;8.67;59.74;101781.16;5076096;28;20048;-90
2021/05/02 01:43:21;;;;;;;12.50;7.47;;;;;;;8.63;60.54;101782.91;5073490;28;20067;-90
2021/05/02 01:45:48;;;;;;;15.48;8.77;;;;;;;8.60;60.03;101779.34;5070550;28;20037;-88
2021/05/02 01:48:18;;;;;;;14.95;7.80;;;;;;;8.60;60.42;101780.25;5070884;28;20076;-90
2021/05/02 01:53:29;;;;;;;8.93;6.30;;;;;;;8.53;60.07;101779.34;5090209;28;20917;-88
2021/05/02 01:56:01;;;;;;;12.52;6.95;;;;;;;8.56;60.38;101792.56;5071777;28;20048;-82
2021/05/02 01:58:29;;;;;;;10.43;7.15;;;;;;;8.50;59.96;101786.38;5050736;28;20120;-90
2021/05/02 02:01:01;;;;;;;9.18;6.18;;;;;;;8.47;60.24;101786.38;5049660;28;20037;-89
2021/05/02 02:03:28;;;;;;;11.95;6.03;;;;;;;8.45;59.88;101788.06;5051290;28;20037;-88
2021/05/02 02:05:55;;;;;;;9.60;5.63;;;;;;;8.41;59.89;101785.44;5052489;28;20116;-82
2021/05/02 02:08:22;;;;;;;10.45;5.70;;;;;;;8.39;60.19;101789.81;5063246;28;20051;-87
2021/05/02 02:10:51;;;;;;;10.27;6.15;;;;;;;8.38;59.77;101782.78;5067387;28;20018;-87
2021/05/02 02:13:19;;;;;;;11.27;6.95;;;;;;;8.39;59.38;101792.47;5062705;28;20033;-83
2021/05/02 02:15:47;;;;;;;10.25;6.60;;;;;;;8.34;59.50;101791.56;5058904;28;20029;-86
2021/05/02 02:18:15;;;;;;;7.78;5.20;;;;;;;8.32;59.67;101785.38;5054617;28;20036;-87
2021/05/02 02:20:45;;;;;;;10.02;5.93;;;;;;;8.34;60.12;101785.41;5056305;28;20025;-89
2021/05/02 02:23:18;;;;;;;6.85;4.78;;;;;;;8.36;59.47;101797.75;5065130;28;20026;-85
2021/05/02 02:25:47;;;;;;;8.65;5.45;;;;;;;8.33;59.90;101795.06;5057863;28;20036;-89
2021/05/02 02:28:17;;;;;;;10.90;5.35;;;;;;;8.33;59.40;101800.34;5050621;28;20026;-85
2021/05/02 02:30:46;;;;;;;9.30;4.93;;;;;;;8.32;59.14;101797.72;5033539;28;20514;-87
2021/05/02 02:33:14;;;;;;;11.15;5.35;;;;;;;8.25;59.39;101799.44;5050480;28;20037;-85
2021/05/02 02:35:50;;;;;;;11.93;4.88;;;;;;;8.33;59.62;101805.63;5049130;28;20044;-89
2021/05/02 02:38:22;;;;;;;8.43;4.75;;;;;;;8.34;59.54;101794.19;5048798;28;20021;-87
2021/05/02 02:40:51;;;;;;;6.97;5.07;;;;;;;8.35;59.60;101801.25;5050544;28;20032;-84
2021/05/02 02:43:37;;;;;;;13.63;4.78;;;;;;;8.38;59.42;101798.63;5048583;28;20033;-86
2021/05/02 02:46:05;;;;;;;11.70;5.32;;;;;;;8.40;59.48;101799.50;5048429;28;20033;-89
2021/05/02 02:48:39;;;;;;;9.98;5.45;;;;;;;8.46;58.70;101797.78;5048900;28;20151;-84
2021/05/02 02:51:06;;;;;;;11.02;3.97;;;;;;;8.50;59.05;101802.22;5049361;28;20025;-90
2021/05/02 02:53:33;;;;;;;7.07;4.53;;;;;;;8.46;58.57;101795.13;5050090;28;20026;-90
2021/05/02 02:56:11;;;;;;;8.60;5.18;;;;;;;8.49;58.78;101805.75;5050031;28;20075;-87
2021/05/02 02:58:45;;;;;;;12.77;5.13;;;;;;;8.49;59.02;101806.63;5050290;28;20033;-86
2021/05/02 03:01:13;;;;;;;9.75;4.97;;;;;;;8.42;58.96;101797.78;5050038;28;20056;-89
2021/05/02 03:03:45;;;;;;;8.43;4.80;;;;;;;8.53;58.45;101807.53;5042274;28;20029;-89
2021/05/02 03:06:12;;;;;;;8.00;5.33;;;;;;;8.50;58.53;101807.50;5018851;28;20076;-90
2021/05/02 03:08:40;;;;;;;8.70;4.78;;;;;;;8.62;58.09;101812.81;5036007;28;20426;-89
2021/05/02 03:11:09;;;;;;;11.05;4.53;;;;;;;8.64;58.31;101815.50;5036506;28;20057;-87
2021/05/02 03:13:36;;;;;;;11.05;5.13;;;;;;;8.70;58.76;101821.69;5036302;28;20025;-86
2021/05/02 03:16:09;;;;;;;8.68;4.60;;;;;;;8.78;58.11;101812.91;5034524;28;20036;-91
2021/05/02 03:18:50;;;;;;;20.08;6.10;;;;;;;8.79;58.37;101817.31;5036582;28;20063;-87
2021/05/02 03:21:23;;;;;;;14.25;5.47;;;;;;;8.74;57.72;101817.28;5037040;28;20088;-88
2021/05/02 03:23:54;;;;;;;8.02;5.07;;;;;;;8.70;58.39;101818.16;5036578;28;20410;-89
2021/05/02 03:26:23;;;;;;;6.60;4.72;;;;;;;8.63;58.23;101814.59;5034530;28;20059;-90
2021/05/02 03:28:54;;;;;;;8.13;4.95;;;;;;;8.55;57.95;101817.22;5034961;28;20447;-85
2021/05/02 03:31:28;;;;;;;8.68;5.07;;;;;;;8.57;58.65;101819.84;5036366;28;20113;-90
2021/05/02 03:34:03;;;;;;;15.50;5.00;;;;;;;8.56;57.94;101823.38;5035744;28;20030;-90
2021/05/02 03:36:36;;;;;;;10.90;5.15;;;;;;;8.55;58.27;101826.91;5036221;28;20036;-89
2021/05/02 03:39:04;;;;;;;11.07;5.78;;;;;;;8.52;58.40;101829.53;5035775;28;20032;-89
2021/05/02 03:41:34;;;;;;;13.60;4.45;;;;;;;8.49;58.83;101826.88;5035241;28;20042;-81
2021/05/02 03:44:01;;;;;;;11.90;4.53;;;;;;;8.48;58.08;101830.41;5036185;28;20104;-82
2021/05/02 03:46:28;;;;;;;14.20;6.10;;;;;;;8.43;58.45;101833.84;5034078;28;20128;-84
2021/05/02 03:48:58;;;;;;;9.63;4.75;;;;;;;8.42;58.86;101834.75;5035223;28;20025;-87
2021/05/02 03:51:27;;;;;;;9.05;4.30;;;;;;;8.44;58.74;101840.03;5034359;28;20084;-89
2021/05/02 03:53:54;;;;;;;8.02;4.80;;;;;;;8.41;59.28;101840.91;5035826;28;20418;-88
2021/05/02 03:56:42;;;;;;;11.05;4.50;;;;;;;8.55;58.58;101842.75;5035370;28;20539;-86
2021/05/02 04:04:34;;;;;;;6.57;3.97;;;;;;;8.47;58.68;101850.63;5103840;27;20728;-88
2021/05/02 04:07:03;;;;;;;10.80;3.92;;;;;;;8.45;58.63;101854.09;5062906;28;20025;-89
2021/05/02 04:09:30;;;;;;;7.85;3.53;;;;;;;8.46;59.06;101858.50;5050938;28;20029;-88
2021/05/02 04:11:57;;;;;;;11.38;3.65;;;;;;;8.48;58.82;101857.69;5051402;28;20038;-87
2021/05/02 04:14:24;;;;;;;10.02;3.78;;;;;;;8.55;58.87;101859.47;5050374;28;20021;-83
2021/05/02 04:16:59;;;;;;;9.48;4.00;;;;;;;8.54;59.16;101854.19;5050645;28;20044;-89
2021/05/02 04:19:27;;;;;;;6.55;3.47;;;;;;;8.48;59.20;101856.81;5049823;28;20041;-85
2021/05/02 04:21:54;;;;;;;8.27;3.33;;;;;;;8.50;58.91;101862.97;5050876;28;20358;-85
2021/05/02 04:24:22;;;;;;;8.65;3.58;;;;;;;8.53;58.97;101860.34;5050795;28;20492;-89
2021/05/02 04:26:52;;;;;;;10.98;3.50;;;;;;;8.47;58.76;101870.88;5050571;28;20465;-89
2021/05/02 04:29:19;;;;;;;7.28;3.50;;;;;;;8.49;58.85;101866.50;5049497;28;20037;-90
2021/05/02 04:31:45;;;;;;;11.35;3.40;;;;;;;8.50;58.48;101876.16;5050899;28;20087;-84
2021/05/02 04:34:12;;;;;;;9.00;4.00;;;;;;;8.53;59.00;101873.56;5051137;28;20480;-89
2021/05/02 04:36:38;;;;;;;9.52;2.75;;;;;;;8.55;58.73;101874.47;5050506;28;20058;-88
2021/05/02 04:39:05;;;;;;;5.40;3.28;;;;;;;8.26;59.29;101877.75;5050720;28;20053;-89
2021/05/02 04:41:32;;;;;;;11.95;3.92;;;;;;;8.23;59.18;101877.75;5050173;28;20104;-89
2021/05/02 04:43:59;;;;;;;8.85;3.25;;;;;;;8.24;59.26;101879.53;5050755;28;20128;-90
2021/05/02 04:46:25;;;;;;;9.13;3.00;;;;;;;8.29;59.51;101877.78;5049900;28;20108;-92
2021/05/02 04:48:52;;;;;;;9.38;3.80;;;;;;;8.22;59.25;101890.09;5050789;28;20029;-83
2021/05/02 04:51:20;;;;;;;7.13;3.30;;;;;;;8.27;59.24;101884.81;5050474;28;20559;-92
2021/05/02 04:53:47;;;;;;;9.15;3.03;;;;;;;8.36;59.27;101891.91;5048946;28;20461;-93
2021/05/02 04:56:14;;;;;;;9.88;2.80;;;;;;;8.47;59.18;101892.88;5050242;28;20036;-93
2021/05/02 04:58:41;;;;;;;7.40;2.63;;;;;;;8.63;58.82;101898.25;5050884;28;20057;-93
2021/05/02 05:01:08;;;;;;;5.85;2.70;;;;;;;8.70;59.12;101900.06;5050599;28;20101;-92
2021/05/02 05:03:35;;;;;;;7.80;2.47;;;;;;;8.67;59.04;101900.94;5049841;28;20128;-93
2021/05/02 05:06:02;;;;;;;5.05;2.17;;;;;;;8.77;58.17;101899.19;5050697;28;20025;-93
2021/05/02 05:08:28;;;;;;;6.20;2.40;;;;;;;8.83;58.11;101906.28;5049782;28;20072;-89
2021/05/02 05:10:55;;;;;;;8.70;2.83;;;;;;;8.81;58.50;101908.03;5049851;28;20061;-88
2021/05/02 05:13:22;;;;;;;10.05;2.47;;;;;;;8.87;58.33;101913.34;5049966;28;20025;-90
2021/05/02 05:15:48;;;;;;;9.27;2.30;;;;;;;8.88;57.74;101920.41;5036602;28;20032;-91
2021/05/02 05:18:15;;;;;;;8.95;2.92;;;;;;;8.84;57.99;101913.34;5036284;28;20052;-90
2021/05/02 05:20:41;;;;;;;7.50;2.00;;;;;;;8.84;58.37;101910.69;5037107;28;20030;-90
2021/05/02 05:23:07;;;;;;;8.48;3.28;;;;;;;9.23;56.65;101917.88;5036250;28;20025;-89
2021/05/02 05:25:34;;;;;;;12.57;2.90;;;;;;;9.25;56.69;101923.19;5036476;28;20122;-89
2021/05/02 05:28:00;;;;;;;11.35;2.42;;;;;;;9.31;56.56;101931.13;5035726;28;20025;-90
2021/05/02 05:30:27;;;;;;;9.68;2.30;;;;;;;9.31;56.35;101931.13;5035927;28;20022;-90
2021/05/02 05:33:02;;;;;;;5.25;2.50;;;;;;;9.45;56.54;101927.66;5036310;28;20029;-89
2021/05/02 05:35:28;;;;;;;6.47;2.55;;;;;;;9.42;56.54;101932.91;5035463;28;20091;-89
2021/05/02 05:37:55;;;;;;;8.63;2.08;;;;;;;9.37;56.10;101938.19;5035844;28;20461;-90
2021/05/02 05:40:22;;;;;;;3.35;2.20;;;;;;;9.39;56.14;101941.72;5035944;28;20420;-89
2021/05/02 05:42:48;;;;;;;7.25;2.88;;;;;;;9.53;55.85;101939.09;5035976;28;20033;-88
2021/05/02 05:45:18;;;;;;;3.75;1.90;;;;;;;9.54;55.50;101936.47;5035686;28;20457;-90
2021/05/02 05:47:49;;;;;;;5.07;2.00;;;;;;;9.60;55.96;101938.25;5035389;28;20057;-90
2021/05/02 05:50:15;;;;;;;7.78;2.42;;;;;;;9.45;55.67;101943.50;5036338;28;20083;-90
2021/05/02 05:52:43;;;;;;;4.38;2.22;;;;;;;9.45;55.57;101948.81;5035917;28;20040;-89
2021/05/02 05:55:14;;;;;;;9.25;4.72;;;;;;;9.62;55.42;101944.44;5036012;28;20033;-91
2021/05/02 05:57:44;;;;;;;6.32;1.98;;;;;;;9.74;54.91;101940.03;5036427;28;20021;-90
2021/05/02 06:00:11;;;;;;;7.00;3.00;;;;;;;9.59;55.39;101955.00;5034792;28;20060;-90
2021/05/02 06:02:37;;;;;;;8.77;2.30;;;;;;;9.81;54.47;101950.63;5035552;28;20041;-89
2021/05/02 06:05:05;;;;;;;4.47;2.17;;;;;;;9.82;54.91;101948.84;5035801;28;20061;-90
2021/05/02 06:07:31;;;;;;;3.45;2.08;;;;;;;9.79;54.59;101948.84;5035836;28;20049;-88
2021/05/02 06:09:57;;;;;;;5.85;2.30;;;;;;;9.94;54.12;101956.78;5035417;28;20424;-89
2021/05/02 06:12:24;;;;;;;7.20;2.22;;;;;;;9.84;54.73;101957.69;5036253;28;20427;-88
2021/05/02 06:14:50;;;;;;;6.55;2.72;;;;;;;9.96;54.33;101962.97;5036138;28;20037;-91
2021/05/02 06:17:27;;;;;;;5.72;2.10;;;;;;;10.09;53.93;101957.69;5034917;28;20036;-90
2021/05/02 06:20:03;;;;;;;8.20;2.45;;;;;;;10.08;53.62;101961.22;5037129;28;20100;-84
2021/05/02 06:22:31;;;;;;;5.78;2.28;;;;;;;10.16;53.91;101965.63;5037713;28;20040;-87
2021/05/02 06:24:58;;;;;;;5.60;2.30;;;;;;;10.27;53.42;101960.34;5036354;28;20366;-88
2021/05/02 06:27:24;;;;;;;7.03;2.33;;;;;;;10.17;53.79;101959.47;5035344;28;20021;-86
2021/05/02 06:29:51;;;;;;;5.45;2.13;;;;;;;10.38;53.32;101955.06;5034436;28;20026;-86
2021/05/02 06:32:22;;;;;;;5.75;2.67;;;;;;;10.49;52.87;101952.38;5035986;28;20037;-82
2021/05/02 06:34:52;;;;;;;6.95;2.00;;;;;;;10.35;52.76;101955.94;5036029;28;20032;-87
2021/05/02 06:37:19;;;;;;;4.75;1.85;;;;;;;10.51;52.63;101955.91;5034920;28;20041;-82
2021/05/02 06:39:45;;;;;;;4.80;2.45;;;;;;;10.56;52.36;101955.91;5035312;28;20064;-81
2021/05/02 06:42:12;;;;;;;5.35;1.90;;;;;;;10.62;52.07;101951.47;5033984;28;20468;-82
2021/05/02 06:44:39;;;;;;;3.72;1.80;;;;;;;10.68;51.48;101950.59;5034878;28;20079;-85
2021/05/02 06:47:06;;;;;;;5.32;1.70;;;;;;;10.74;51.95;101952.31;5034041;28;20030;-81
2021/05/02 06:49:32;;;;;;;8.15;1.92;;;;;;;10.84;51.52;101956.72;5034967;28;20380;-87
2021/05/02 06:52:00;;;;;;;6.13;1.65;;;;;;;10.92;50.54;101959.34;5034580;28;20063;-81
2021/05/02 06:54:26;;;;;;;5.32;1.88;;;;;;;10.90;49.57;101959.34;5034890;28;20047;-81
2021/05/02 06:56:53;;;;;;;2.35;1.00;;;;;;;11.06;49.18;101957.50;5034661;28;20103;-81
2021/05/02 06:59:19;;;;;;;3.05;1.50;;;;;;;11.12;49.55;101959.28;5034556;28;20033;-80
2021/05/02 07:01:45;;;;;;;3.80;1.40;;;;;;;11.08;48.59;101960.16;5034426;28;20025;-85
2021/05/02 07:04:11;;;;;;;3.60;1.60;;;;;;;11.39;48.52;101962.66;5033935;28;20053;-84
2021/05/02 07:06:38;;;;;;;6.90;1.40;;;;;;;11.58;48.38;101959.03;5034197;28;20053;-84
2021/05/02 07:09:05;;;;;;;2.03;1.10;;;;;;;11.64;47.96;101972.25;5034444;28;20029;-83
2021/05/02 07:11:33;;;;;;;4.32;1.27;;;;;;;11.71;47.40;101958.94;5034131;28;20064;-83
2021/05/02 07:14:02;;;;;;;3.95;1.30;;;;;;;11.92;47.19;101968.53;5034412;28;20045;-84
2021/05/02 07:16:28;;;;;;;2.22;1.20;;;;;;;11.90;46.99;101968.53;5033843;28;20022;-85
2021/05/02 07:18:55;;;;;;;2.35;1.10;;;;;;;12.21;46.95;101965.69;5034789;28;20029;-85
2021/05/02 07:21:21;;;;;;;2.67;1.60;;;;;;;12.17;46.74;101971.03;5034489;28;20025;-86
2021/05/02 07:23:50;;;;;;;3.30;1.10;;;;;;;12.61;45.96;101977.69;5034105;28;20041;-85
2021/05/02 07:26:18;;;;;;;4.63;1.40;;;;;;;12.59;45.94;101972.38;5034234;28;20029;-86
2021/05/02 07:28:44;;;;;;;2.13;1.15;;;;;;;12.64;45.80;101976.78;5034166;28;20026;-86
2021/05/02 07:31:11;;;;;;;7.38;1.77;;;;;;;12.52;45.43;101978.66;5033290;28;20381;-85
2021/05/02 07:33:42;;;;;;;3.00;1.58;;;;;;;12.49;43.99;101992.00;5032738;28;20030;-85
2021/05/02 07:36:09;;;;;;;9.43;1.65;;;;;;;12.23;44.43;101989.56;5033521;28;20029;-85
2021/05/02 07:38:36;;;;;;;3.35;1.63;;;;;;;12.32;44.71;101985.94;5032974;28;20036;-85
2021/05/02 07:41:04;;;;;;;2.28;1.30;;;;;;;12.30;44.74;101986.84;5034017;28;20025;-89
2021/05/02 07:43:32;;;;;;;2.83;1.20;;;;;;;12.23;44.86;101994.88;5032373;28;20038;-89
2021/05/02 07:46:00;;;;;;;2.15;1.40;;;;;;;12.48;44.29;101984.91;5033694;28;20033;-88
2021/05/02 07:48:28;;;;;;;1.80;1.15;;;;;;;12.65;43.70;101986.50;5051158;22;20050;-87
2021/05/02 07:50:57;;;;;;;2.92;1.30;;;;;;;12.65;43.49;101986.50;5036507;28;20033;-84
2021/05/02 07:53:24;;;;;;;3.40;1.30;;;;;;;12.75;42.79;101996.19;5036990;28;20519;-88
2021/05/02 07:55:50;;;;;;;4.35;1.42;;;;;;;12.82;42.12;101986.34;5035632;28;20061;-87
2021/05/02 07:58:17;;;;;;;2.72;1.65;;;;;;;13.01;42.29;101987.00;5040418;28;20113;-83
2021/05/02 08:00:43;;;;;;;3.30;1.73;;;;;;;13.01;42.85;101989.66;5049238;28;20108;-84
2021/05/02 08:03:09;;;;;;;9.13;3.30;;;;;;;12.51;42.61;101990.22;5042147;28;20033;-87
2021/05/02 08:05:36;;;;;;;2.72;1.35;;;;;;;12.30;42.81;101999.25;5035264;28;20034;-85
2021/05/02 08:08:04;;;;;;;4.55;1.40;;;;;;;12.65;43.25;102002.47;5036645;28;20030;-84
2021/05/02 08:10:30;;;;;;;3.47;1.17;;;;;;;12.74;43.12;101999.72;5037217;28;20037;-85
2021/05/02 08:12:57;;;;;;;3.75;1.85;;;;;;;12.73;42.79;102000.63;5036460;28;20544;-84
2021/05/02 08:15:27;;;;;;;4.40;1.52;;;;;;;12.72;42.83;102006.81;5035677;28;20036;-85
2021/05/02 08:17:53;;;;;;;3.13;1.70;;;;;;;12.60;43.55;102010.50;5036232;28;20057;-85
2021/05/02 08:20:19;;;;;;;2.63;1.58;;;;;;;12.76;43.65;102005.88;5036537;28;20088;-86
2021/05/02 08:22:46;;;;;;;2.90;1.67;;;;;;;12.81;43.14;102004.09;5036133;28;20021;-85
2021/05/02 08:25:12;;;;;;;7.20;1.63;;;;;;;12.79;43.04;102008.53;5038099;28;20030;-86
2021/05/02 08:27:39;;;;;;;4.20;1.45;;;;;;;12.90;43.17;102006.63;5036099;28;20071;-85
2021/05/02 08:30:06;;;;;;;3.40;1.23;;;;;;;12.89;43.92;101994.22;5035348;28;20053;-85
2021/05/02 08:32:33;;;;;;;2.50;1.10;;;;;;;13.14;43.18;102001.94;5033631;28;20060;-84
2021/05/02 08:35:01;;;;;;;4.10;1.23;;;;;;;13.11;41.99;101996.66;5038176;28;20457;-84
2021/05/02 08:37:28;;;;;;;4.38;1.73;;;;;;;13.18;41.43;101998.31;5037357;28;20044;-85
2021/05/02 08:39:55;;;;;;;6.20;1.55;;;;;;;13.33;42.21;101996.38;5036002;28;20111;-85
2021/05/02 08:42:21;;;;;;;3.60;1.60;;;;;;;13.55;40.83;101992.53;5034756;28;20037;-86
2021/05/02 08:44:48;;;;;;;2.28;1.10;;;;;;;13.37;40.73;102003.41;5034760;28;20034;-84
2021/05/02 08:47:14;;;;;;;2.63;1.15;;;;;;;13.57;40.80;101998.75;5034922;28;20068;-86
2021/05/02 08:49:43;;;;;;;1.80;1.00;;;;;;;13.44;41.12;102005.13;5035819;28;20029;-87
2021/05/02 08:52:09;;;;;;;3.33;1.40;;;;;;;13.16;42.85;102017.88;5038764;28;20040;-85
2021/05/02 08:54:36;;;;;;;4.40;1.55;;;;;;;12.82;46.40;102015.59;5039521;28;20028;-86
2021/05/02 08:57:02;;;;;;;4.97;1.50;;;;;;;12.47;47.27;102028.31;5038778;28;20102;-85
2021/05/02 08:59:29;;;;;;;3.90;1.70;;;;;;;12.18;48.61;102045.41;5037676;28;20052;-85
2021/05/02 09:01:57;;;;;;;5.50;1.67;;;;;;;12.02;49.40;102055.25;5038616;28;20029;-86
2021/05/02 09:04:23;;;;;;;3.20;1.35;;;;;;;11.22;50.66;102090.09;5038213;28;20393;-85
2021/05/02 09:06:50;;;;;;;2.05;0.90;;;;;;;10.47;53.02;102091.97;5038040;28;20033;-85
2021/05/02 09:09:16;;;;;;;1.73;1.20;;;;;;;10.29;54.20;102092.78;5038133;28;20040;-85
2021/05/02 09:11:46;;;;;;;1.45;1.05;;;;;;;9.91;56.16;102085.66;5038357;28;20088;-88
2021/05/02 09:16:57;;;;;;;2.35;1.27;;;;;;;9.90;55.82;102058.28;5106574;22;20491;-83
2021/05/02 09:19:25;;;;;;;2.97;1.17;;;;;;;10.01;55.33;102056.53;5091146;28;20108;-84
2021/05/02 09:21:52;;;;;;;5.05;1.20;;;;;;;10.11;54.88;102061.88;5091426;28;20032;-85
2021/05/02 09:24:33;;;;;;;2.20;1.30;;;;;;;10.36;55.25;102058.38;5091341;28;20031;-85
2021/05/02 09:27:11;;;;;;;17.83;7.57;;;;;;;10.35;55.38;102056.59;5090303;28;20024;-85
2021/05/02 09:29:39;;;;;;;4.38;2.13;;;;;;;10.16;55.75;102065.41;5090688;28;20048;-83
2021/05/02 09:32:07;;;;;;;5.32;1.55;;;;;;;10.29;56.16;102056.59;5091235;28;20426;-84
2021/05/02 09:34:34;;;;;;;4.03;1.55;;;;;;;10.30;56.06;102057.47;5076767;28;20515;-83
2021/05/02 09:39:56;;;;;;;4.85;2.33;;;;;;;10.87;56.51;102049.50;5081382;28;20417;-83
2021/05/02 09:42:32;;;;;;;4.95;2.20;;;;;;;11.16;56.35;102036.19;5069017;28;20041;-82
2021/05/02 09:45:00;;;;;;;4.93;2.40;;;;;;;11.49;55.45;102038.72;5069644;28;20025;-84
2021/05/02 09:47:30;;;;;;;4.20;2.03;;;;;;;11.86;54.76;102029.66;5066464;28;20029;-83
2021/05/02 09:55:36;;;;;;;2.50;1.58;;;;;;;12.05;50.78;102049.03;5068130;27;20402;-84
2021/05/02 10:03:29;;;;;;;3.00;1.88;;;;;;;12.35;48.38;102047.94;5072782;27;20414;-84
2021/05/02 10:05:59;;;;;;;3.55;1.27;;;;;;;11.81;46.89;102046.50;5067083;28;20032;-83
2021/05/02 10:08:27;;;;;;;1.63;1.15;;;;;;;12.13;48.36;102047.22;5057012;28;20056;-83
2021/05/02 10:10:55;;;;;;;5.20;1.30;;;;;;;12.38;48.63;102031.06;5064226;28;20039;-83
2021/05/02 10:13:21;;;;;;;1.85;1.20;;;;;;;12.45;47.52;102043.44;5056107;28;20025;-84
2021/05/02 10:15:48;;;;;;;3.03;1.33;;;;;;;12.43;47.74;102039.88;5057503;28;20065;-85
2021/05/02 10:18:15;;;;;;;1.58;0.90;;;;;;;12.69;47.00;102036.13;5062368;28;20036;-85
2021/05/02 10:20:46;;;;;;;6.43;1.42;;;;;;;12.75;46.26;102044.03;5061810;28;20033;-86
2021/05/02 10:23:15;;;;;;;2.88;1.10;;;;;;;12.44;44.99;102049.63;5063495;28;20025;-86
2021/05/02 10:25:43;;;;;;;3.08;1.08;;;;;;;12.53;45.80;102038.03;5064726;28;20028;-91
2021/05/02 10:28:15;;;;;;;2.33;1.30;;;;;;;12.46;44.89;102031.88;5058876;28;20496;-85
2021/05/02 10:30:48;;;;;;;2.13;0.93;;;;;;;12.29;42.84;102048.84;5063031;28;20040;-85
2021/05/02 10:33:15;;;;;;;;;;;;;;;12.47;44.28;102046.94;5056761;28;20446;-88
2021/05/02 10:36:02;;;;;;;3.47;1.05;;;;;;;12.52;43.99;102034.47;5060359;28;19917;-90
2021/05/02 10:39:01;;;;;;;7.05;1.70;;;;;;;12.90;44.83;102051.84;5054487;28;20040;-84
2021/05/02 10:46:53;;;;;;;4.00;1.23;;;;;;;13.08;42.09;102060.53;5059019;27;20413;-88
2021/05/02 10:52:30;;;;;;;2.60;1.08;;;;;;;13.35;39.18;102030.06;5066238;27;20967;-89
2021/05/02 10:55:08;;;;;;;1.58;0.95;;;;;;;13.59;39.88;102034.22;5064892;28;20033;-89
2021/05/02 10:57:35;;;;;;;1.90;0.85;;;;;;;13.50;38.74;102034.34;5055627;28;20067;-90
2021/05/02 11:02:50;;;;;;;1.20;0.93;;;;;;;14.02;41.03;102045.16;5068409;27;20444;-86
2021/05/02 11:05:18;;;;;;;2.50;1.33;;;;;;;13.89;40.27;102034.69;5059686;28;20033;-89
2021/05/02 11:07:47;;;;;;;3.30;0.90;;;;;;;14.13;40.90;102042.31;5055085;28;20025;-87
2021/05/02 11:10:17;;;;;;;1.67;1.00;;;;;;;14.33;40.31;102050.00;5060839;28;20025;-87
2021/05/02 11:12:46;;;;;;;2.72;1.17;;;;;;;14.53;40.46;102042.56;5049825;28;20040;-86
2021/05/02 11:15:37;;;;;;;3.20;1.20;;;;;;;14.92;40.29;102054.38;5053627;28;20025;-87
2021/05/02 11:18:20;;;;;;;4.40;1.10;;;;;;;14.57;39.83;102048.72;5055926;28;20096;-92
2021/05/02 11:20:48;;;;;;;;;;;;;;;14.43;38.59;102054.28;5066434;28;20032;-96
2021/05/02 11:23:18;;;;;;;2.25;0.95;;;;;;;14.55;39.09;102045.19;5068018;28;20410;-84
2021/05/02 11:25:54;;;;;;;4.32;1.75;;;;;;;14.24;39.44;102057.25;5054258;28;20426;-82
2021/05/02 11:28:57;;;;;;;10.05;5.50;;;;;;;14.78;38.95;102058.16;5052523;28;20098;-86
2021/05/02 11:31:43;;;;;;;2.17;1.40;;;;;;;14.72;42.38;102075.13;5056130;28;20037;-83
2021/05/02 11:34:09;;;;;;;3.17;1.15;;;;;;;14.42;41.96;102068.53;5055645;28;20024;-86
2021/05/02 11:36:39;;;;;;;3.13;1.05;;;;;;;14.44;41.70;102073.81;5053920;28;20045;-86
2021/05/02 11:39:06;;;;;;;4.35;0.98;;;;;;;14.47;41.75;102072.00;5062428;28;20020;-85
2021/05/02 11:42:01;;;;;;;2.92;1.48;;;;;;;14.51;41.88;102065.69;5059037;28;20463;-86
2021/05/02 11:44:28;;;;;;;2.92;1.10;;;;;;;14.55;41.48;102074.53;5051404;28;20063;-81
2021/05/02 11:46:55;;;;;;;2.50;0.90;;;;;;;14.74;41.33;102068.91;5057667;28;20035;-84
2021/05/02 11:49:21;;;;;;;4.43;1.15;;;;;;;14.74;41.58;102067.09;5053612;28;20033;-82
2021/05/02 11:51:58;;;;;;;5.55;1.00;;;;;;;14.67;41.12;102061.00;5050910;28;20032;-85
2021/05/02 11:54:24;;;;;;;2.85;1.17;;;;;;;14.58;41.57;102071.81;5044693;28;20033;-89
2021/05/02 11:56:51;;;;;;;1.40;1.00;;;;;;;14.15;41.17;102085.84;5035491;28;20488;-87
2021/05/02 11:59:18;;;;;;;4.13;1.00;;;;;;;13.93;41.52;102078.13;5048534;28;20076;-87
2021/05/02 12:01:48;;;;;;;2.80;1.02;;;;;;;14.06;42.67;102079.72;5059437;28;20500;-80
2021/05/02 12:04:18;;;;;;;1.98;1.10;;;;;;;13.78;41.77;102089.88;5043731;28;20079;-84
2021/05/02 12:06:59;;;;;;;4.00;1.25;;;;;;;13.25;41.58;102095.81;5054660;28;20127;-82
2021/05/02 12:09:29;;;;;;;2.42;0.80;;;;;;;13.48;41.45;102088.50;5046406;28;20119;-84
2021/05/02 12:11:58;;;;;;;3.00;1.13;;;;;;;13.63;41.54;102085.63;5052211;28;20040;-82
2021/05/02 12:14:28;;;;;;;2.20;0.70;;;;;;;13.40;40.87;102100.13;5033579;28;20048;-86
2021/05/02 12:16:57;;;;;;;2.97;1.08;;;;;;;13.43;40.09;102093.88;5051448;22;20037;-82
2021/05/02 12:19:25;;;;;;;3.45;0.80;;;;;;;13.28;40.81;102100.22;5010804;28;20081;-84
2021/05/02 12:21:53;;;;;;;2.00;0.80;;;;;;;13.48;40.45;102085.84;5010052;28;20034;-82